Time;durP1;ratioP1;P1;durP2;ratioP2;P2;SDS_P1;SDS_P2;PMS_P1;PMS_P2;Temp;Humidity;BMP_temperature;BMP_pressure;BME280_temperature;BME280_humidity;BME280_pressure;Samples;Min_cycle;Max_cycle;Signal;HPM_P1;HPM_P2
2023/05/24 00:02:25;;;;;;;7.22;1.85;;;10.90;68.60;;;;;;5076798;28;20040;-68
2023/05/24 00:04:51;;;;;;;8.02;2.03;;;10.80;68.80;;;;;;5076266;28;20020;-68
2023/05/24 00:07:17;;;;;;;6.65;1.90;;;10.70;69.00;;;;;;5081681;28;20494;-68
2023/05/24 00:09:43;;;;;;;6.32;2.10;;;10.80;69.20;;;;;;5070406;28;20499;-68
2023/05/24 00:12:08;;;;;;;5.40;1.85;;;10.70;69.20;;;;;;5069814;28;20039;-69
2023/05/24 00:14:34;;;;;;;10.07;2.10;;;10.70;69.30;;;;;;5069814;28;20024;-69
2023/05/24 00:17:00;;;;;;;6.28;2.05;;;10.70;69.20;;;;;;5088232;28;20036;-68
2023/05/24 00:19:26;;;;;;;5.13;1.63;;;10.60;69.30;;;;;;5073809;28;20652;-68
2023/05/24 00:21:51;;;;;;;6.57;1.73;;;10.60;69.50;;;;;;5088536;28;20763;-68
2023/05/24 00:24:17;;;;;;;6.72;2.08;;;10.60;69.60;;;;;;5071226;28;20428;-68
2023/05/24 00:26:43;;;;;;;4.88;1.63;;;10.60;69.50;;;;;;5080921;28;20032;-68
2023/05/24 00:29:09;;;;;;;4.18;1.77;;;10.60;69.50;;;;;;5069728;28;20091;-69
2023/05/24 00:31:34;;;;;;;9.00;2.58;;;10.60;69.60;;;;;;5070304;28;20032;-68
2023/05/24 00:34:00;;;;;;;6.28;1.80;;;10.60;69.60;;;;;;5069822;28;20032;-69
2023/05/24 00:36:25;;;;;;;7.03;2.03;;;10.60;69.60;;;;;;5070456;28;20112;-68
2023/05/24 00:38:54;;;;;;;5.93;1.92;;;10.60;69.50;;;;;;5069345;28;20033;-69
2023/05/24 00:41:19;;;;;;;7.68;1.67;;;10.60;69.70;;;;;;5069357;28;20471;-67
2023/05/24 00:43:45;;;;;;;7.75;2.15;;;10.60;69.80;;;;;;5070082;28;20024;-68
2023/05/24 00:46:16;;;;;;;5.05;2.00;;;10.60;69.60;;;;;;5078196;28;20031;-68
2023/05/24 00:48:42;;;;;;;5.05;1.90;;;10.50;69.80;;;;;;5077375;28;20017;-68
2023/05/24 00:51:08;;;;;;;8.13;2.22;;;10.50;70.00;;;;;;5077170;28;20379;-70
2023/05/24 00:53:36;;;;;;;5.07;1.95;;;10.40;70.10;;;;;;5069155;28;20098;-68
2023/05/24 00:56:03;;;;;;;7.15;2.17;;;10.50;70.10;;;;;;5070044;28;20025;-69
2023/05/24 00:58:30;;;;;;;5.70;1.75;;;10.50;70.00;;;;;;5069176;28;20078;-68
2023/05/24 01:01:00;;;;;;;6.03;2.17;;;10.50;70.00;;;;;;5072751;28;20024;-69
2023/05/24 01:03:30;;;;;;;5.50;1.73;;;10.40;70.00;;;;;;5070566;28;20029;-69
2023/05/24 01:06:01;;;;;;;6.05;1.90;;;10.40;70.00;;;;;;5049810;28;20075;-69
2023/05/24 01:08:38;;;;;;;6.33;2.03;;;10.30;70.20;;;;;;5062241;28;20031;-69
2023/05/24 01:11:29;;;;;;;8.63;2.25;;;10.30;70.40;;;;;;5078170;28;20845;-69
2023/05/24 01:14:35;;;;;;;5.55;2.00;;;10.20;70.50;;;;;;5060295;28;20039;-69
2023/05/24 01:17:26;;;;;;;5.45;1.70;;;10.20;70.70;;;;;;5071025;28;20166;-69
2023/05/24 01:20:08;;;;;;;5.32;1.48;;;10.20;70.80;;;;;;5069126;28;20108;-71
2023/05/24 01:22:37;;;;;;;;;;;10.10;70.90;;;;;;5071560;28;20044;-70
2023/05/24 01:25:18;;;;;;;7.07;2.10;;;10.10;70.80;;;;;;5072163;28;19915;-69
2023/05/24 01:27:45;;;;;;;7.28;1.80;;;10.00;71.00;;;;;;5075893;28;20509;-70
2023/05/24 01:30:12;;;;;;;6.20;2.05;;;10.00;71.20;;;;;;5070492;28;20020;-69
2023/05/24 01:32:38;;;;;;;6.97;1.77;;;10.00;71.30;;;;;;5066432;28;20108;-68
2023/05/24 01:35:04;;;;;;;6.40;2.10;;;10.00;71.40;;;;;;5071698;28;20495;-68
2023/05/24 01:37:29;;;;;;;4.65;1.85;;;10.00;71.50;;;;;;5080682;28;20107;-68
2023/05/24 01:39:55;;;;;;;8.82;2.35;;;10.00;71.60;;;;;;5077509;28;20021;-69
2023/05/24 01:42:32;;;;;;;4.72;2.03;;;10.00;71.70;;;;;;5075035;28;20144;-67
2023/05/24 01:45:05;;;;;;;6.93;2.35;;;9.90;71.90;;;;;;5066999;28;20024;-68
2023/05/24 01:48:02;;;;;;;9.20;2.42;;;9.90;72.10;;;;;;5069846;28;20017;-68
2023/05/24 01:50:31;;;;;;;6.85;2.30;;;9.90;72.30;;;;;;5065599;28;20364;-68
2023/05/24 01:53:02;;;;;;;7.97;2.30;;;9.90;72.30;;;;;;5066393;28;20048;-69
2023/05/24 01:55:31;;;;;;;7.15;2.20;;;9.90;72.30;;;;;;5072296;28;20024;-69
2023/05/24 01:58:01;;;;;;;7.03;2.10;;;9.90;72.50;;;;;;5073725;28;20036;-68
2023/05/24 02:00:28;;;;;;;7.43;2.60;;;9.90;72.50;;;;;;5075104;28;20477;-68
2023/05/24 02:02:55;;;;;;;6.47;2.15;;;9.90;72.60;;;;;;5078577;28;20020;-68
2023/05/24 02:05:20;;;;;;;6.18;2.30;;;9.90;72.70;;;;;;5085789;28;20104;-69
2023/05/24 02:07:46;;;;;;;7.85;2.33;;;9.90;72.70;;;;;;5072600;28;20104;-70
2023/05/24 02:10:12;;;;;;;9.43;2.30;;;9.90;72.80;;;;;;5078121;28;20088;-70
2023/05/24 02:12:37;;;;;;;5.80;1.98;;;9.80;72.90;;;;;;5068379;28;20037;-70
2023/05/24 02:15:03;;;;;;;5.22;2.10;;;9.90;72.90;;;;;;5078461;28;20024;-69
2023/05/24 02:17:31;;;;;;;5.57;2.33;;;9.80;72.90;;;;;;5063569;28;20033;-69
2023/05/24 02:19:58;;;;;;;6.57;2.08;;;9.80;73.10;;;;;;5071812;28;20021;-69
2023/05/24 02:22:24;;;;;;;6.45;2.30;;;9.80;73.40;;;;;;5072305;28;20058;-71
2023/05/24 02:24:50;;;;;;;6.20;2.25;;;9.80;73.50;;;;;;5073150;28;20058;-69
2023/05/24 02:27:16;;;;;;;6.57;2.20;;;9.70;73.50;;;;;;5072913;28;20492;-69
2023/05/24 02:29:41;;;;;;;5.13;2.30;;;9.80;73.60;;;;;;5072754;28;20029;-69
2023/05/24 02:32:07;;;;;;;5.68;2.30;;;9.80;73.50;;;;;;5072152;28;20033;-69
2023/05/24 02:34:32;;;;;;;9.70;2.33;;;9.70;73.60;;;;;;5072561;28;20029;-69
2023/05/24 02:36:58;;;;;;;7.93;2.47;;;9.70;73.90;;;;;;5072381;28;20025;-69
2023/05/24 02:39:23;;;;;;;8.63;2.40;;;9.70;74.10;;;;;;5072765;28;20033;-70
2023/05/24 02:41:49;;;;;;;9.45;2.47;;;9.70;74.10;;;;;;5071283;28;20045;-68
2023/05/24 02:44:15;;;;;;;6.50;2.50;;;9.70;74.30;;;;;;5076489;28;20020;-70
2023/05/24 02:46:40;;;;;;;6.50;2.40;;;9.70;74.40;;;;;;5081595;28;20078;-69
2023/05/24 02:49:06;;;;;;;8.35;2.30;;;9.70;74.50;;;;;;5072033;28;20048;-70
2023/05/24 02:51:31;;;;;;;10.07;2.50;;;9.70;74.40;;;;;;5077855;28;20054;-70
2023/05/24 02:53:57;;;;;;;7.45;2.70;;;9.70;74.30;;;;;;5071207;28;20070;-71
2023/05/24 02:56:23;;;;;;;7.10;2.25;;;9.70;74.30;;;;;;5079537;28;20043;-69
2023/05/24 02:58:48;;;;;;;8.25;2.60;;;9.70;74.30;;;;;;5070992;28;20132;-70
2023/05/24 03:01:14;;;;;;;5.53;2.38;;;9.70;74.90;;;;;;5073311;28;20104;-70
2023/05/24 03:03:40;;;;;;;6.38;2.40;;;9.70;74.30;;;;;;5072026;28;20059;-69
2023/05/24 03:06:06;;;;;;;7.75;2.78;;;9.70;74.20;;;;;;5073613;28;20024;-70
2023/05/24 03:08:36;;;;;;;7.32;2.55;;;9.70;74.20;;;;;;5071857;28;20024;-70
2023/05/24 03:11:02;;;;;;;6.20;2.53;;;9.70;74.20;;;;;;5077613;28;20550;-69
2023/05/24 03:13:27;;;;;;;8.73;2.58;;;9.60;74.10;;;;;;5071687;28;20027;-68
2023/05/24 03:15:53;;;;;;;5.95;2.47;;;9.60;74.10;;;;;;5073301;28;20032;-68
2023/05/24 03:18:18;;;;;;;5.40;2.00;;;9.60;74.20;;;;;;5069743;28;20686;-68
2023/05/24 03:20:44;;;;;;;6.07;2.05;;;9.60;74.20;;;;;;5073367;28;20032;-69
2023/05/24 03:23:10;;;;;;;5.85;2.30;;;9.60;74.20;;;;;;5075698;28;20024;-69
2023/05/24 03:25:36;;;;;;;5.95;2.35;;;9.60;74.20;;;;;;5080374;28;20028;-69
2023/05/24 03:28:02;;;;;;;5.82;2.50;;;9.50;74.30;;;;;;5072695;28;20127;-70
2023/05/24 03:30:28;;;;;;;5.97;2.25;;;9.50;75.00;;;;;;5081706;28;20643;-68
2023/05/24 03:32:53;;;;;;;8.27;2.97;;;9.50;74.60;;;;;;5075023;28;20021;-68
2023/05/24 03:35:19;;;;;;;6.78;2.65;;;9.50;74.80;;;;;;5083002;28;20104;-69
2023/05/24 03:37:45;;;;;;;7.65;2.58;;;9.50;75.10;;;;;;5071577;28;20027;-69
2023/05/24 03:40:11;;;;;;;7.93;2.63;;;9.50;75.20;;;;;;5080622;28;20024;-70
2023/05/24 03:42:36;;;;;;;9.63;2.58;;;9.60;75.40;;;;;;5077920;28;20036;-70
2023/05/24 03:45:02;;;;;;;6.68;2.53;;;9.60;75.50;;;;;;5083704;28;20078;-68
2023/05/24 03:47:28;;;;;;;5.18;2.10;;;9.70;75.80;;;;;;5072846;28;20486;-68
2023/05/24 03:49:54;;;;;;;9.30;2.83;;;9.70;75.90;;;;;;5074813;28;20021;-68
2023/05/24 03:52:19;;;;;;;6.40;2.50;;;9.70;76.20;;;;;;5080842;28;20025;-69
2023/05/24 03:54:45;;;;;;;7.85;3.00;;;9.70;76.30;;;;;;5085665;28;20371;-70
2023/05/24 03:57:10;;;;;;;9.25;3.03;;;9.80;76.50;;;;;;5077059;28;20138;-68
2023/05/24 03:59:36;;;;;;;8.00;3.13;;;9.70;76.50;;;;;;5069326;28;20035;-69
2023/05/24 04:02:01;;;;;;;7.32;2.70;;;9.80;76.80;;;;;;5084306;28;20129;-70
2023/05/24 04:04:27;;;;;;;7.38;2.78;;;9.70;76.90;;;;;;5078831;28;20048;-68
2023/05/24 04:06:52;;;;;;;8.55;2.75;;;9.80;77.10;;;;;;5073193;28;20040;-68
2023/05/24 04:09:18;;;;;;;9.27;2.67;;;9.80;77.00;;;;;;5075792;28;20430;-68
2023/05/24 04:11:44;;;;;;;8.00;2.85;;;9.80;77.10;;;;;;5085832;28;20054;-69
2023/05/24 04:14:10;;;;;;;7.28;2.85;;;9.80;77.10;;;;;;5068749;28;20028;-67
2023/05/24 04:16:38;;;;;;;8.30;2.65;;;9.90;77.20;;;;;;5075515;28;20431;-68
2023/05/24 04:19:04;;;;;;;8.73;2.80;;;9.90;77.10;;;;;;5071683;28;20031;-70
2023/05/24 04:21:31;;;;;;;7.68;3.28;;;9.90;77.20;;;;;;5073867;28;20162;-69
2023/05/24 04:23:59;;;;;;;10.05;3.08;;;9.90;77.30;;;;;;5078850;28;20467;-70
2023/05/24 04:26:24;;;;;;;8.45;3.10;;;9.80;77.40;;;;;;5072398;28;20016;-69
2023/05/24 04:28:50;;;;;;;8.10;3.30;;;9.90;77.60;;;;;;5074778;28;20632;-69
2023/05/24 04:31:16;;;;;;;8.27;2.90;;;9.90;77.70;;;;;;5081241;28;20154;-68
2023/05/24 04:33:41;;;;;;;9.48;2.97;;;9.90;77.70;;;;;;5082493;28;20028;-69
2023/05/24 04:36:10;;;;;;;9.30;3.15;;;9.90;77.70;;;;;;5079431;28;20027;-70
2023/05/24 04:38:37;;;;;;;9.32;3.17;;;9.90;77.70;;;;;;5077162;28;20115;-68
2023/05/24 04:41:03;;;;;;;5.95;3.05;;;9.90;77.80;;;;;;5079230;28;20103;-69
2023/05/24 04:43:29;;;;;;;10.65;3.78;;;9.90;77.80;;;;;;5074870;28;20028;-68
2023/05/24 04:45:54;;;;;;;9.23;3.20;;;9.90;78.10;;;;;;5086317;28;20468;-69
2023/05/24 04:48:22;;;;;;;10.05;3.40;;;10.00;78.10;;;;;;5077997;28;20118;-68
2023/05/24 04:50:53;;;;;;;12.80;3.67;;;10.10;77.90;;;;;;5078564;28;20383;-70
2023/05/24 04:53:20;;;;;;;8.82;3.20;;;10.20;77.90;;;;;;5071624;28;20039;-69
2023/05/24 04:55:46;;;;;;;10.55;3.65;;;10.20;77.90;;;;;;5077430;28;20478;-68
2023/05/24 04:58:12;;;;;;;7.45;3.00;;;10.30;78.00;;;;;;5081712;28;20031;-71
2023/05/24 05:00:38;;;;;;;9.82;3.70;;;10.40;77.80;;;;;;5083366;28;20032;-70
2023/05/24 05:03:04;;;;;;;9.90;3.50;;;10.40;77.70;;;;;;5071380;28;20103;-70
2023/05/24 05:05:30;;;;;;;8.98;3.58;;;10.40;77.70;;;;;;5076218;28;20031;-70
2023/05/24 05:07:55;;;;;;;8.88;3.70;;;10.50;77.80;;;;;;5081106;28;20028;-70
2023/05/24 05:10:21;;;;;;;11.85;3.55;;;10.50;77.90;;;;;;5077882;28;20074;-70
2023/05/24 05:12:47;;;;;;;8.55;3.38;;;10.80;77.90;;;;;;5072467;28;20016;-68
2023/05/24 05:15:13;;;;;;;11.90;3.53;;;10.90;77.20;;;;;;5076161;28;20021;-70
2023/05/24 05:17:38;;;;;;;12.20;3.80;;;11.10;76.80;;;;;;5081394;28;20027;-70
2023/05/24 05:20:05;;;;;;;9.70;3.60;;;11.10;76.60;;;;;;5080754;28;20024;-69
2023/05/24 05:22:31;;;;;;;9.02;3.60;;;11.20;76.50;;;;;;5072219;28;20115;-70
2023/05/24 05:24:57;;;;;;;8.48;3.20;;;11.10;76.50;;;;;;5076260;28;20104;-70
2023/05/24 05:27:22;;;;;;;10.85;3.65;;;11.20;76.50;;;;;;5080524;28;20371;-70
2023/05/24 05:29:48;;;;;;;10.27;3.63;;;11.20;76.60;;;;;;5078596;28;20020;-71
2023/05/24 05:32:14;;;;;;;10.07;3.25;;;11.70;75.80;;;;;;5079118;28;20028;-70
2023/05/24 05:34:39;;;;;;;10.85;3.13;;;11.90;75.10;;;;;;5077972;28;20024;-69
2023/05/24 05:37:06;;;;;;;10.15;3.70;;;12.00;74.70;;;;;;5069249;28;20118;-70
2023/05/24 05:39:32;;;;;;;9.80;3.80;;;12.20;74.70;;;;;;5072040;28;20025;-70
2023/05/24 05:41:58;;;;;;;14.43;4.05;;;12.20;74.10;;;;;;5077574;28;20035;-69
2023/05/24 05:44:23;;;;;;;9.90;4.05;;;12.10;74.50;;;;;;5072268;28;20016;-69
2023/05/24 05:46:49;;;;;;;9.73;3.58;;;12.20;75.00;;;;;;5081562;28;20024;-69
2023/05/24 05:49:17;;;;;;;10.98;3.28;;;12.20;74.60;;;;;;5078751;28;20670;-71
2023/05/24 05:51:43;;;;;;;10.90;3.30;;;12.10;74.60;;;;;;5074622;28;20475;-71
2023/05/24 05:54:13;;;;;;;8.63;3.28;;;12.40;74.50;;;;;;5076189;28;20021;-70
2023/05/24 05:56:44;;;;;;;9.05;3.33;;;12.30;74.40;;;;;;5075809;28;20020;-69
2023/05/24 05:59:14;;;;;;;12.23;3.58;;;12.70;73.90;;;;;;5076748;28;20395;-69
2023/05/24 06:01:40;;;;;;;10.52;3.83;;;12.80;73.60;;;;;;5079517;28;20504;-69
2023/05/24 06:04:06;;;;;;;10.95;3.58;;;13.00;73.00;;;;;;5077267;28;20024;-69
2023/05/24 06:06:32;;;;;;;9.32;3.42;;;12.90;73.20;;;;;;5082593;28;20027;-69
2023/05/24 06:08:58;;;;;;;8.82;3.47;;;13.10;73.40;;;;;;5076046;28;20479;-70
2023/05/24 06:11:24;;;;;;;9.73;3.60;;;13.10;72.80;;;;;;5072285;28;20468;-69
2023/05/24 06:13:49;;;;;;;7.95;3.40;;;12.90;73.30;;;;;;5070750;28;20067;-72
2023/05/24 06:16:15;;;;;;;11.57;4.28;;;13.00;73.50;;;;;;5074357;28;20388;-69
2023/05/24 06:18:41;;;;;;;13.15;4.05;;;13.40;72.40;;;;;;5074655;28;20028;-69
2023/05/24 06:21:09;;;;;;;10.70;3.92;;;13.10;72.30;;;;;;5078602;28;20059;-69
2023/05/24 06:23:38;;;;;;;11.15;3.80;;;12.90;72.90;;;;;;5084673;28;20415;-70
2023/05/24 06:26:04;;;;;;;9.15;3.95;;;13.10;73.20;;;;;;5074348;28;20741;-71
2023/05/24 06:28:29;;;;;;;11.73;3.95;;;12.90;72.90;;;;;;5070477;28;20037;-70
2023/05/24 06:30:55;;;;;;;9.77;3.60;;;12.80;73.40;;;;;;5068074;28;20025;-69
2023/05/24 06:33:21;;;;;;;8.60;3.22;;;12.70;73.70;;;;;;5071163;28;20052;-69
2023/05/24 06:35:47;;;;;;;11.48;3.65;;;12.70;73.90;;;;;;5070066;28;20506;-69
2023/05/24 06:38:13;;;;;;;11.25;3.78;;;12.70;74.00;;;;;;5074642;28;20025;-68
2023/05/24 06:40:38;;;;;;;9.93;3.40;;;12.90;73.70;;;;;;5080722;28;20777;-69
2023/05/24 06:43:04;;;;;;;11.05;3.92;;;13.20;73.40;;;;;;5073113;28;20630;-70
2023/05/24 06:45:30;;;;;;;11.75;4.00;;;13.50;73.00;;;;;;5076005;28;20020;-69
2023/05/24 06:47:55;;;;;;;12.13;4.43;;;13.70;72.50;;;;;;5070327;28;20162;-70
2023/05/24 06:50:21;;;;;;;14.88;4.57;;;13.90;72.40;;;;;;5070373;28;20082;-69
2023/05/24 06:52:47;;;;;;;11.20;3.42;;;14.00;72.10;;;;;;5080521;28;20102;-69
2023/05/24 06:55:13;;;;;;;8.30;3.10;;;14.10;72.10;;;;;;5069947;28;20020;-69
2023/05/24 06:57:38;;;;;;;10.52;3.63;;;14.10;71.90;;;;;;5057510;28;20028;-68
2023/05/24 07:00:08;;;;;;;12.98;3.78;;;14.10;71.70;;;;;;5071178;28;20510;-69
2023/05/24 07:02:34;;;;;;;14.02;3.97;;;14.00;71.80;;;;;;5068884;28;20024;-68
2023/05/24 07:04:59;;;;;;;8.00;3.20;;;14.00;71.80;;;;;;5074598;28;20597;-70
2023/05/24 07:07:25;;;;;;;10.27;3.17;;;13.90;72.00;;;;;;5068144;28;20550;-70
2023/05/24 07:09:51;;;;;;;11.30;3.47;;;14.00;72.40;;;;;;5070776;28;20103;-69
2023/05/24 07:12:17;;;;;;;10.35;3.40;;;14.20;72.20;;;;;;5066166;28;20035;-70
2023/05/24 07:14:42;;;;;;;8.32;3.28;;;14.30;71.90;;;;;;5069374;28;20052;-70
2023/05/24 07:17:08;;;;;;;10.65;4.00;;;14.30;71.60;;;;;;5079900;28;20040;-70
2023/05/24 07:19:34;;;;;;;10.10;4.07;;;14.20;71.50;;;;;;5075520;28;20024;-69
2023/05/24 07:22:00;;;;;;;10.65;3.40;;;14.10;72.40;;;;;;5073561;28;20021;-70
2023/05/24 07:24:26;;;;;;;10.07;3.97;;;14.00;71.90;;;;;;5061726;28;20104;-70
2023/05/24 07:26:52;;;;;;;12.07;3.78;;;14.10;72.00;;;;;;5067978;28;20070;-70
2023/05/24 07:29:18;;;;;;;12.40;3.60;;;14.10;72.10;;;;;;5073068;28;20431;-69
2023/05/24 07:31:44;;;;;;;11.57;3.17;;;14.10;72.10;;;;;;5065287;28;20405;-69
2023/05/24 07:34:09;;;;;;;8.75;3.40;;;14.10;72.20;;;;;;5080420;28;20028;-69
2023/05/24 07:36:35;;;;;;;10.80;3.42;;;14.10;72.10;;;;;;5065246;28;20025;-68
2023/05/24 07:39:03;;;;;;;11.32;3.63;;;14.10;72.20;;;;;;5069236;28;20397;-68
2023/05/24 07:41:28;;;;;;;12.18;3.20;;;14.30;72.20;;;;;;5071340;28;20028;-68
2023/05/24 07:43:55;;;;;;;13.27;3.53;;;14.60;71.60;;;;;;5073105;28;20528;-69
2023/05/24 07:46:20;;;;;;;11.52;3.83;;;14.90;71.00;;;;;;5066676;28;20063;-68
2023/05/24 07:48:46;;;;;;;7.10;3.08;;;15.20;70.40;;;;;;5063814;28;20514;-68
2023/05/24 07:51:11;;;;;;;10.35;3.50;;;15.20;69.30;;;;;;5069982;28;20028;-68
2023/05/24 07:53:37;;;;;;;10.75;3.30;;;15.30;69.00;;;;;;5068168;28;20036;-68
2023/05/24 07:56:03;;;;;;;14.10;4.00;;;15.50;68.50;;;;;;5067890;28;20021;-68
2023/05/24 07:58:28;;;;;;;10.43;3.20;;;15.70;67.30;;;;;;5071457;28;20091;-70
2023/05/24 08:00:54;;;;;;;12.40;3.45;;;15.80;66.80;;;;;;5068386;28;20037;-68
2023/05/24 08:03:20;;;;;;;10.00;3.42;;;15.90;66.50;;;;;;5072808;28;20387;-67
2023/05/24 08:05:45;;;;;;;8.15;2.83;;;15.80;65.80;;;;;;5072103;28;20023;-67
2023/05/24 08:08:11;;;;;;;9.85;3.08;;;15.70;65.80;;;;;;5072660;28;20467;-68
2023/05/24 08:10:37;;;;;;;7.43;2.70;;;15.60;65.70;;;;;;5072109;28;20017;-68
2023/05/24 08:13:03;;;;;;;10.18;2.83;;;15.70;65.60;;;;;;5071882;28;20021;-68
2023/05/24 08:15:29;;;;;;;9.05;2.70;;;15.90;65.40;;;;;;5070048;28;20032;-69
2023/05/24 08:17:55;;;;;;;6.97;2.83;;;16.10;65.00;;;;;;5073290;28;20042;-68
2023/05/24 08:20:24;;;;;;;9.38;2.80;;;16.10;64.10;;;;;;5074856;28;20039;-69
2023/05/24 08:22:50;;;;;;;10.05;3.15;;;16.10;64.00;;;;;;5069617;28;20047;-70
2023/05/24 08:25:15;;;;;;;10.95;3.03;;;15.90;63.90;;;;;;5067988;28;20033;-70
2023/05/24 08:27:41;;;;;;;8.32;2.85;;;15.80;64.20;;;;;;5069991;28;20456;-69
2023/05/24 08:30:07;;;;;;;7.30;2.40;;;15.80;64.50;;;;;;5074495;28;20032;-68
2023/05/24 08:32:33;;;;;;;8.50;3.03;;;15.80;64.40;;;;;;5073228;28;20032;-69
2023/05/24 08:34:58;;;;;;;8.43;2.90;;;15.70;64.30;;;;;;5072087;28;20032;-69
2023/05/24 08:37:24;;;;;;;7.22;2.80;;;15.60;64.20;;;;;;5073465;28;20032;-70
2023/05/24 08:39:52;;;;;;;6.40;2.53;;;15.70;64.40;;;;;;5069632;28;20038;-69
2023/05/24 08:42:20;;;;;;;9.63;2.80;;;15.80;64.40;;;;;;5073894;28;20033;-69
2023/05/24 08:44:58;;;;;;;9.20;3.08;;;15.80;64.10;;;;;;5070320;28;20016;-69
2023/05/24 08:47:25;;;;;;;7.93;2.50;;;15.90;63.90;;;;;;5071473;28;20024;-69
2023/05/24 08:49:52;;;;;;;6.10;2.55;;;15.90;63.30;;;;;;5070676;28;20107;-69
2023/05/24 08:52:19;;;;;;;7.85;2.22;;;15.90;63.70;;;;;;5073696;28;20119;-69
2023/05/24 08:54:47;;;;;;;6.25;2.30;;;15.90;63.00;;;;;;5072127;28;20467;-69
2023/05/24 08:57:14;;;;;;;10.23;2.97;;;16.00;62.70;;;;;;5071484;28;20036;-69
2023/05/24 08:59:40;;;;;;;7.07;2.55;;;15.90;61.80;;;;;;5070004;28;20086;-68
2023/05/24 09:02:10;;;;;;;8.65;2.50;;;15.90;62.00;;;;;;5072257;28;20032;-68
2023/05/24 09:04:38;;;;;;;7.93;2.30;;;16.00;61.90;;;;;;5069458;28;20032;-69
2023/05/24 09:07:06;;;;;;;6.45;2.22;;;16.00;61.50;;;;;;5067547;28;20028;-68
2023/05/24 09:09:34;;;;;;;6.35;2.28;;;16.20;62.20;;;;;;5070198;28;20029;-68
2023/05/24 09:12:03;;;;;;;7.47;2.10;;;16.20;61.20;;;;;;5070497;28;20091;-68
2023/05/24 09:14:30;;;;;;;6.82;2.38;;;16.20;60.90;;;;;;5069402;28;20504;-69
2023/05/24 09:16:56;;;;;;;6.70;2.33;;;16.20;60.60;;;;;;5070043;28;20063;-69
2023/05/24 09:19:22;;;;;;;6.72;2.50;;;16.20;60.50;;;;;;5068617;28;20066;-69
2023/05/24 09:21:49;;;;;;;9.27;2.72;;;16.10;60.00;;;;;;5074285;28;20021;-69
2023/05/24 09:24:14;;;;;;;7.18;2.65;;;16.10;60.20;;;;;;5069705;28;20032;-68
2023/05/24 09:26:41;;;;;;;7.57;2.63;;;16.10;60.00;;;;;;5069323;28;20073;-69
2023/05/24 09:29:08;;;;;;;6.65;2.65;;;16.20;60.10;;;;;;5067058;28;20024;-69
2023/05/24 09:31:34;;;;;;;7.50;2.15;;;16.10;59.70;;;;;;5069242;28;20020;-69
2023/05/24 09:34:00;;;;;;;7.47;2.30;;;16.10;60.00;;;;;;5077337;28;20024;-69
2023/05/24 09:36:28;;;;;;;7.22;2.28;;;16.10;60.20;;;;;;5084037;28;20027;-69
2023/05/24 09:39:17;;;;;;;8.45;2.85;;;16.10;60.00;;;;;;5072031;28;20044;-68
2023/05/24 09:41:44;;;;;;;5.60;2.38;;;16.00;59.80;;;;;;5077332;28;20039;-68
2023/05/24 09:44:12;;;;;;;5.80;2.25;;;16.10;60.00;;;;;;5082864;28;20023;-69
2023/05/24 09:46:37;;;;;;;5.18;1.98;;;16.30;60.00;;;;;;5075255;28;20485;-69
2023/05/24 09:49:05;;;;;;;8.50;2.88;;;16.30;59.80;;;;;;5067677;28;20021;-68
2023/05/24 09:51:32;;;;;;;7.55;2.67;;;16.30;59.70;;;;;;5077346;28;20027;-68
2023/05/24 09:54:02;;;;;;;7.68;2.35;;;16.30;59.50;;;;;;5069129;28;20031;-69
2023/05/24 09:56:28;;;;;;;7.10;2.45;;;16.40;59.40;;;;;;5056510;28;20644;-69
2023/05/24 09:58:55;;;;;;;7.85;2.30;;;16.40;59.10;;;;;;5082785;28;20052;-70
2023/05/24 10:01:24;;;;;;;7.05;2.50;;;16.40;58.80;;;;;;5071989;28;20028;-69
2023/05/24 10:04:01;;;;;;;6.30;2.35;;;16.40;58.90;;;;;;5072492;28;20012;-67
2023/05/24 10:06:27;;;;;;;7.57;2.33;;;16.40;58.70;;;;;;5072634;28;20031;-68
2023/05/24 10:08:55;;;;;;;6.45;2.30;;;16.40;58.50;;;;;;5069911;28;20016;-69
2023/05/24 10:11:21;;;;;;;6.15;2.20;;;16.30;58.20;;;;;;5069291;28;20544;-69
2023/05/24 10:13:47;;;;;;;6.55;2.20;;;16.30;58.20;;;;;;5076447;28;20108;-69
2023/05/24 10:16:13;;;;;;;8.23;2.78;;;16.20;58.20;;;;;;5076915;28;20036;-69
2023/05/24 10:18:38;;;;;;;6.07;2.33;;;16.20;57.80;;;;;;5081085;28;20062;-68
2023/05/24 10:21:07;;;;;;;4.75;2.17;;;16.20;58.00;;;;;;5086080;28;20114;-67
2023/05/24 10:23:35;;;;;;;6.40;2.33;;;16.20;58.10;;;;;;5072101;28;20020;-67
2023/05/24 10:26:07;;;;;;;6.05;2.15;;;16.30;58.10;;;;;;5070009;28;20040;-67
2023/05/24 10:28:37;;;;;;;7.03;2.92;;;16.30;58.20;;;;;;5074371;28;20033;-68
2023/05/24 10:31:10;;;;;;;9.07;2.88;;;16.30;58.20;;;;;;5077201;28;20032;-68
2023/05/24 10:33:36;;;;;;;6.38;2.22;;;16.40;58.10;;;;;;5084317;28;20463;-69
2023/05/24 10:36:08;;;;;;;6.00;2.40;;;16.40;58.20;;;;;;5079968;28;20028;-68
2023/05/24 10:38:36;;;;;;;;;;;16.60;58.20;;;;;;5083691;28;20025;-67
2023/05/24 10:41:01;;;;;;;6.07;2.13;;;16.60;58.00;;;;;;5081749;28;19958;-67
2023/05/24 10:43:27;;;;;;;5.90;2.38;;;16.70;58.00;;;;;;5082276;28;20062;-67
2023/05/24 10:45:52;;;;;;;9.75;3.03;;;16.80;57.70;;;;;;5073483;28;20066;-68
2023/05/24 10:48:27;;;;;;;7.20;2.20;;;16.90;57.50;;;;;;5078110;28;20025;-68
2023/05/24 10:50:53;;;;;;;4.65;2.10;;;17.10;57.20;;;;;;5082974;28;20020;-68
2023/05/24 10:53:24;;;;;;;6.22;2.45;;;17.30;56.90;;;;;;5062708;28;20589;-67
2023/05/24 10:55:58;;;;;;;5.72;2.22;;;17.50;56.40;;;;;;5070573;28;20028;-68
2023/05/24 10:58:42;;;;;;;6.03;2.35;;;17.60;55.90;;;;;;5067584;28;20078;-68
2023/05/24 11:01:29;;;;;;;6.95;2.60;;;17.70;55.50;;;;;;5069338;28;20510;-68
2023/05/24 11:04:17;;;;;;;6.05;2.55;;;17.80;55.40;;;;;;5071731;28;20074;-68
2023/05/24 11:07:00;;;;;;;8.80;2.53;;;17.90;55.40;;;;;;5074095;28;20481;-67
2023/05/24 11:09:27;;;;;;;5.47;2.05;;;18.00;54.80;;;;;;5072304;28;20050;-68
2023/05/24 11:12:08;;;;;;;7.60;2.60;;;18.00;54.90;;;;;;5072998;28;20032;-68
2023/05/24 11:14:41;;;;;;;6.90;2.70;;;18.00;54.90;;;;;;5071597;28;20028;-68
2023/05/24 11:17:07;;;;;;;5.85;2.03;;;18.00;55.00;;;;;;5072391;28;20091;-67
2023/05/24 11:19:36;;;;;;;5.53;2.70;;;18.00;55.00;;;;;;5071262;28;20028;-69
2023/05/24 11:22:13;;;;;;;6.97;2.40;;;18.00;55.20;;;;;;5067499;28;20804;-68
2023/05/24 11:24:40;;;;;;;6.70;2.47;;;18.00;55.20;;;;;;5061676;28;20021;-69
2023/05/24 11:27:06;;;;;;;5.57;2.38;;;18.00;55.00;;;;;;5065726;28;20467;-68
2023/05/24 11:29:38;;;;;;;8.95;2.33;;;18.00;54.90;;;;;;5063239;28;20020;-68
2023/05/24 11:32:04;;;;;;;7.70;2.17;;;18.10;54.70;;;;;;5060120;28;20031;-68
2023/05/24 11:34:31;;;;;;;8.63;2.22;;;18.30;54.60;;;;;;5069786;28;20441;-67
2023/05/24 11:36:59;;;;;;;6.78;2.50;;;18.60;54.30;;;;;;5065629;28;20029;-68
2023/05/24 11:39:32;;;;;;;8.15;2.47;;;18.50;53.80;;;;;;5065092;28;20103;-68
2023/05/24 11:42:00;;;;;;;6.38;2.28;;;18.50;53.70;;;;;;5070906;28;20533;-68
2023/05/24 11:44:29;;;;;;;5.22;2.20;;;18.50;53.90;;;;;;5062578;28;20031;-68
2023/05/24 11:47:02;;;;;;;6.80;2.28;;;18.60;53.90;;;;;;5059946;28;20388;-69
2023/05/24 11:49:28;;;;;;;6.53;2.70;;;18.60;53.70;;;;;;5076856;28;20020;-68
2023/05/24 11:51:55;;;;;;;4.40;2.10;;;18.70;53.80;;;;;;5078647;28;20025;-68
2023/05/24 11:54:22;;;;;;;6.63;2.70;;;18.80;53.80;;;;;;5067477;28;20086;-68
2023/05/24 11:56:47;;;;;;;5.03;2.22;;;18.70;53.40;;;;;;5071655;28;20142;-68
2023/05/24 11:59:21;;;;;;;5.63;2.15;;;18.70;53.50;;;;;;5070275;28;20478;-68
2023/05/24 12:01:46;;;;;;;7.82;2.50;;;18.70;53.30;;;;;;5071080;28;20025;-69
2023/05/24 12:04:12;;;;;;;9.57;3.00;;;18.70;53.20;;;;;;5069050;28;20031;-68
2023/05/24 12:06:42;;;;;;;6.88;2.53;;;18.40;53.40;;;;;;5071696;28;20129;-68
2023/05/24 12:09:11;;;;;;;7.20;2.67;;;18.40;53.80;;;;;;5076728;28;20044;-68
2023/05/24 12:11:45;;;;;;;4.53;2.30;;;18.50;53.90;;;;;;5080220;28;20103;-68
2023/05/24 12:14:19;;;;;;;8.23;2.65;;;18.50;54.00;;;;;;5072624;28;20037;-67
2023/05/24 12:16:46;;;;;;;5.55;2.20;;;18.60;53.50;;;;;;5071903;28;20624;-68
2023/05/24 12:19:18;;;;;;;6.88;2.50;;;18.90;53.50;;;;;;5075267;28;20056;-67
2023/05/24 12:21:45;;;;;;;6.22;2.20;;;19.00;53.10;;;;;;5078529;28;20028;-67
2023/05/24 12:24:13;;;;;;;6.65;2.55;;;19.00;53.10;;;;;;5071357;28;20017;-68
2023/05/24 12:26:43;;;;;;;7.45;2.75;;;18.80;52.90;;;;;;5069659;28;20039;-68
2023/05/24 12:29:10;;;;;;;7.22;2.80;;;18.60;52.80;;;;;;5076181;28;20229;-68
2023/05/24 12:31:37;;;;;;;9.13;2.72;;;18.70;53.40;;;;;;5078774;28;20024;-68
2023/05/24 12:34:05;;;;;;;6.70;2.65;;;18.80;53.30;;;;;;5069782;28;20534;-68
2023/05/24 12:36:31;;;;;;;7.68;2.67;;;19.00;53.00;;;;;;5072901;28;20030;-68
2023/05/24 12:38:58;;;;;;;7.90;2.78;;;19.10;52.20;;;;;;5071713;28;20028;-68
2023/05/24 12:41:24;;;;;;;8.57;2.83;;;19.30;52.20;;;;;;5078736;28;20048;-69
2023/05/24 12:43:51;;;;;;;7.28;2.90;;;19.20;52.00;;;;;;5071066;28;20028;-68
2023/05/24 12:46:17;;;;;;;8.88;2.70;;;19.20;52.20;;;;;;5069989;28;20020;-67
2023/05/24 12:48:42;;;;;;;6.35;2.47;;;19.10;52.30;;;;;;5066462;28;20017;-67
2023/05/24 12:51:08;;;;;;;8.95;2.85;;;18.90;52.40;;;;;;5070684;28;20383;-67